createdAt,value
2022-11-29T00:01:31.537Z,4.94
2022-11-29T00:04:36.458Z,4.90
2022-11-29T00:07:42.583Z,4.91
2022-11-29T00:10:47.495Z,4.96
2022-11-29T00:13:52.169Z,4.92
2022-11-29T00:17:02.033Z,4.99
2022-11-29T00:20:10.308Z,4.95
2022-11-29T00:23:16.516Z,4.99
2022-11-29T00:26:21.349Z,5.01
2022-11-29T00:29:26.122Z,5.03
2022-11-29T00:32:30.766Z,5.06
2022-11-29T00:35:35.481Z,5.07
2022-11-29T00:38:41.892Z,5.09
2022-11-29T00:41:47.165Z,5.10
2022-11-29T00:44:51.858Z,5.14
2022-11-29T00:47:57.036Z,5.10
2022-11-29T00:51:01.778Z,5.08
2022-11-29T00:54:07.984Z,5.14
2022-11-29T00:57:14.411Z,5.03
2022-11-29T01:00:20.028Z,5.07
2022-11-29T01:03:25.141Z,5.09
2022-11-29T01:06:29.806Z,5.10
2022-11-29T01:09:36.007Z,5.07
2022-11-29T01:12:41.269Z,4.99
2022-11-29T01:15:45.969Z,4.95
2022-11-29T01:18:50.613Z,5.08
2022-11-29T01:21:55.305Z,5.09
2022-11-29T01:25:01.512Z,5.14
2022-11-29T01:28:06.305Z,5.09
2022-11-29T01:31:13.537Z,5.10
2022-11-29T01:34:18.564Z,5.15
2022-11-29T01:37:23.375Z,5.13
2022-11-29T01:40:29.493Z,5.08
2022-11-29T01:43:34.959Z,5.09
2022-11-29T01:46:41.894Z,5.05
2022-11-29T01:49:49.033Z,5.14
2022-11-29T01:52:54.098Z,5.08
2022-11-29T01:56:04.464Z,5.13
2022-11-29T01:59:13.054Z,5.15
2022-11-29T02:02:23.541Z,5.01
2022-11-29T02:05:28.679Z,5.08
2022-11-29T02:08:38.348Z,5.07
2022-11-29T02:12:09.402Z,5.02
2022-11-29T02:15:27.160Z,4.97
2022-11-29T02:18:45.458Z,4.95
2022-11-29T02:21:53.108Z,4.96
2022-11-29T02:25:19.269Z,4.94
2022-11-29T02:28:57.219Z,5.00
2022-11-29T02:32:47.798Z,5.03
2022-11-29T02:36:31.886Z,5.02
2022-11-29T02:40:00.029Z,5.00
2022-11-29T02:43:31.191Z,4.95
2022-11-29T02:46:56.413Z,4.94
2022-11-29T02:50:26.360Z,5.02
2022-11-29T02:53:36.825Z,4.98
2022-11-29T02:56:47.485Z,4.95
2022-11-29T02:59:58.671Z,4.99
2022-11-29T03:03:08.140Z,5.00
2022-11-29T03:06:28.500Z,4.95
2022-11-29T03:09:40.492Z,4.92
2022-11-29T03:12:48.717Z,4.96
2022-11-29T03:16:00.705Z,4.98
2022-11-29T03:19:46.642Z,4.95
2022-11-29T03:23:10.198Z,4.93
2022-11-29T03:26:18.795Z,4.82
2022-11-29T03:29:28.384Z,4.95
2022-11-29T03:32:41.042Z,4.98
2022-11-29T03:35:52.169Z,4.99
2022-11-29T03:39:04.952Z,4.95
2022-11-29T03:42:17.511Z,4.90
2022-11-29T03:45:28.947Z,4.95
2022-11-29T03:48:36.632Z,4.91
2022-11-29T03:51:58.289Z,4.86
2022-11-29T03:55:21.249Z,4.89
2022-11-29T03:58:46.219Z,4.95
2022-11-29T04:02:27.304Z,4.88
2022-11-29T04:05:58.783Z,4.87
2022-11-29T04:09:36.561Z,4.90
2022-11-29T04:13:38.365Z,4.89
2022-11-29T04:17:26.301Z,4.93
2022-11-29T04:21:11.866Z,4.94
2022-11-29T04:24:57.042Z,4.95
2022-11-29T04:28:28.136Z,5.01
2022-11-29T04:31:45.079Z,5.02
2022-11-29T04:35:18.139Z,5.03
2022-11-29T04:38:48.412Z,5.08
2022-11-29T04:42:42.248Z,5.08
2022-11-29T04:46:15.867Z,5.07
2022-11-29T04:49:46.079Z,5.10
2022-11-29T04:53:32.389Z,5.11
2022-11-29T04:56:44.321Z,5.02
2022-11-29T04:59:53.435Z,5.12
2022-11-29T05:03:00.952Z,5.10
2022-11-29T05:06:20.598Z,5.11
2022-11-29T05:09:36.068Z,5.03
2022-11-29T05:12:47.243Z,5.12
2022-11-29T05:16:15.907Z,5.19
2022-11-29T05:19:54.838Z,5.07
2022-11-29T05:23:18.639Z,5.09
2022-11-29T05:26:30.357Z,5.12
2022-11-29T05:29:41.790Z,5.03
2022-11-29T05:32:57.769Z,5.11
2022-11-29T05:36:11.661Z,5.16
2022-11-29T05:39:32.381Z,5.15
2022-11-29T05:42:57.395Z,5.24
2022-11-29T05:46:08.630Z,5.20
2022-11-29T05:49:25.398Z,5.19
2022-11-29T05:52:43.284Z,5.15
2022-11-29T05:55:56.629Z,5.15
2022-11-29T05:59:08.115Z,5.12
2022-11-29T06:02:34.240Z,5.24
2022-11-29T06:05:47.029Z,5.06
2022-11-29T06:08:57.156Z,5.07
2022-11-29T06:12:05.391Z,5.10
2022-11-29T06:15:51.964Z,5.12
2022-11-29T06:19:42.370Z,5.09
2022-11-29T06:23:03.048Z,5.08
2022-11-29T06:26:22.746Z,5.15
2022-11-29T06:29:34.680Z,5.14
2022-11-29T06:32:47.729Z,5.15
2022-11-29T06:36:09.229Z,5.07
2022-11-29T06:39:15.191Z,5.09
2022-11-29T06:42:19.868Z,5.10
2022-11-29T06:45:25.420Z,5.05
2022-11-29T06:48:38.520Z,5.14
2022-11-29T06:51:56.226Z,5.15
2022-11-29T06:55:18.278Z,5.16
2022-11-29T06:58:41.199Z,5.24
2022-11-29T07:01:52.715Z,5.20
2022-11-29T07:05:15.430Z,5.20
2022-11-29T07:08:22.989Z,5.22
2022-11-29T07:11:29.186Z,5.20
2022-11-29T07:14:34.807Z,5.18
2022-11-29T07:17:47.481Z,5.18
2022-11-29T07:21:05.244Z,5.21
2022-11-29T07:24:21.118Z,5.18
2022-11-29T07:27:30.991Z,5.24
2022-11-29T07:30:43.360Z,5.27
2022-11-29T07:33:58.759Z,5.26
2022-11-29T07:37:10.952Z,5.20
2022-11-29T07:40:17.181Z,5.21
2022-11-29T07:43:36.889Z,5.06
2022-11-29T07:46:41.714Z,5.09
2022-11-29T07:49:46.396Z,5.17
2022-11-29T07:52:52.879Z,5.16
2022-11-29T07:55:58.058Z,5.22
2022-11-29T07:59:02.905Z,5.20
2022-11-29T08:02:11.619Z,5.00
2022-11-29T08:05:16.920Z,5.14
2022-11-29T08:08:23.099Z,5.10
2022-11-29T08:11:28.482Z,5.00
2022-11-29T08:14:33.860Z,5.19
2022-11-29T08:17:38.908Z,5.20
2022-11-29T08:20:43.719Z,5.18
2022-11-29T08:23:50.812Z,5.15
2022-11-29T08:26:55.473Z,5.14
2022-11-29T08:30:00.760Z,5.19
2022-11-29T08:33:05.801Z,5.29
2022-11-29T08:36:15.392Z,5.26
2022-11-29T08:39:21.569Z,5.25
2022-11-29T08:42:26.390Z,5.19
2022-11-29T08:45:30.981Z,5.25
2022-11-29T08:48:36.973Z,5.17
2022-11-29T08:51:41.988Z,5.24
2022-11-29T08:54:48.569Z,5.29
2022-11-29T08:57:54.117Z,5.26
2022-11-29T09:00:59.324Z,5.31
2022-11-29T09:04:04.204Z,5.32
2022-11-29T09:07:09.211Z,5.31
2022-11-29T09:10:15.371Z,5.28
2022-11-29T09:13:20.105Z,5.30
2022-11-29T09:16:28.075Z,5.35
2022-11-29T09:19:32.906Z,5.35
2022-11-29T09:22:37.536Z,5.37
2022-11-29T09:25:49.875Z,5.41
2022-11-29T09:28:54.916Z,5.30
2022-11-29T09:31:59.827Z,5.33
2022-11-29T09:35:04.588Z,5.40
2022-11-29T09:38:09.459Z,5.38
2022-11-29T09:41:48.551Z,5.36
2022-11-29T09:45:04.110Z,5.38
2022-11-29T09:48:26.977Z,5.40
2022-11-29T09:51:39.845Z,5.43
2022-11-29T09:54:55.602Z,5.48
2022-11-29T09:58:03.833Z,5.59
2022-11-29T10:01:14.678Z,5.62
2022-11-29T10:04:22.979Z,5.64
2022-11-29T10:07:32.655Z,5.67
2022-11-29T10:10:43.224Z,5.65
2022-11-29T10:13:53.637Z,5.71
2022-11-29T10:17:04.377Z,5.72
2022-11-29T10:20:15.940Z,5.71
2022-11-29T10:23:25.509Z,5.71
2022-11-29T10:26:35.001Z,5.66
2022-11-29T10:29:41.588Z,5.72
2022-11-29T10:32:48.736Z,5.71
2022-11-29T10:35:57.951Z,5.77
2022-11-29T10:39:11.391Z,5.70
2022-11-29T10:42:39.341Z,5.50
2022-11-29T10:45:50.804Z,5.64
2022-11-29T10:48:56.029Z,5.63
2022-11-29T10:52:01.309Z,5.63
2022-11-29T10:55:08.073Z,5.66
2022-11-29T10:58:24.798Z,5.69
2022-11-29T11:01:38.967Z,5.61
2022-11-29T11:04:48.065Z,5.62
2022-11-29T11:07:57.967Z,5.56
2022-11-29T11:11:04.844Z,5.69
2022-11-29T11:14:24.632Z,5.76
2022-11-29T11:17:32.973Z,5.72
2022-11-29T11:20:40.877Z,5.69
2022-11-29T11:23:55.812Z,5.58
2022-11-29T11:27:01.599Z,5.61
2022-11-29T11:30:09.131Z,5.52
2022-11-29T11:33:23.053Z,5.69
2022-11-29T11:36:28.891Z,5.76
2022-11-29T11:39:33.613Z,5.65
2022-11-29T11:42:41.034Z,5.70
2022-11-29T11:45:53.834Z,5.66
2022-11-29T11:49:00.549Z,5.75
2022-11-29T11:52:07.121Z,5.71
2022-11-29T11:55:33.293Z,5.79
2022-11-29T11:58:40.345Z,5.82
2022-11-29T12:01:45.012Z,5.77
2022-11-29T12:04:51.099Z,5.80
2022-11-29T12:08:09.027Z,5.77
2022-11-29T12:11:17.257Z,5.73
2022-11-29T12:14:30.830Z,5.81
2022-11-29T12:17:38.459Z,5.78
2022-11-29T12:20:50.251Z,5.75
2022-11-29T12:23:59.386Z,5.76
2022-11-29T12:27:06.943Z,5.77
2022-11-29T12:30:15.325Z,5.73
2022-11-29T12:33:31.770Z,5.68
2022-11-29T12:36:43.200Z,5.72
2022-11-29T12:39:58.679Z,5.73
2022-11-29T12:43:11.032Z,5.73
2022-11-29T12:46:22.249Z,5.66
2022-11-29T12:49:31.708Z,5.69
2022-11-29T12:52:46.059Z,5.72
2022-11-29T12:55:58.260Z,5.78
2022-11-29T12:59:19.635Z,5.79
2022-11-29T13:02:36.218Z,5.78
2022-11-29T13:05:52.971Z,5.71
2022-11-29T13:10:02.872Z,5.60
2022-11-29T13:13:18.985Z,5.70
2022-11-29T13:16:36.533Z,5.68
2022-11-29T13:19:46.310Z,5.63
2022-11-29T13:22:57.573Z,5.62
2022-11-29T13:26:08.060Z,5.59
2022-11-29T13:29:17.036Z,5.55
2022-11-29T13:32:34.940Z,5.48
2022-11-29T13:35:45.269Z,5.45
2022-11-29T13:39:01.090Z,5.44
2022-11-29T13:42:14.141Z,5.45
2022-11-29T13:45:25.313Z,5.54
2022-11-29T13:48:37.971Z,5.52
2022-11-29T13:51:42.630Z,5.53
2022-11-29T13:54:47.597Z,5.53
2022-11-29T14:01:21.600Z,5.55
2022-11-29T14:04:31.608Z,5.58
2022-11-29T14:07:36.488Z,5.55
2022-11-29T14:10:41.474Z,5.52
2022-11-29T14:13:53.237Z,5.50
2022-11-29T14:17:01.840Z,5.56
2022-11-29T14:20:59.014Z,5.49
2022-11-29T14:24:40.572Z,5.53
2022-11-29T14:28:05.913Z,5.48
2022-11-29T14:31:13.035Z,5.50
2022-11-29T14:34:29.298Z,5.27
2022-11-29T14:37:52.252Z,5.42
2022-11-29T14:41:02.312Z,5.42
2022-11-29T14:44:17.142Z,5.44
2022-11-29T14:47:29.971Z,5.48
2022-11-29T14:50:37.029Z,5.44
2022-11-29T14:53:43.956Z,5.36
2022-11-29T14:56:48.886Z,5.41
2022-11-29T14:59:55.040Z,5.42
2022-11-29T15:03:09.932Z,5.43
2022-11-29T15:06:19.353Z,5.46
2022-11-29T15:09:24.584Z,5.47
2022-11-29T15:12:35.435Z,5.41
2022-11-29T15:15:55.052Z,5.42
2022-11-29T15:19:46.688Z,5.32
2022-11-29T15:22:54.974Z,5.35
2022-11-29T15:26:01.967Z,5.34
2022-11-29T15:29:18.011Z,5.32
2022-11-29T15:32:26.750Z,5.24
2022-11-29T15:35:34.150Z,5.22
2022-11-29T15:38:51.537Z,5.26
2022-11-29T15:42:02.905Z,5.30
2022-11-29T15:45:28.056Z,5.30
2022-11-29T15:48:33.794Z,5.20
2022-11-29T15:51:40.166Z,5.27
2022-11-29T15:54:46.738Z,5.33
2022-11-29T15:57:53.393Z,5.26
2022-11-29T16:00:59.167Z,5.24
2022-11-29T16:04:03.932Z,5.17
2022-11-29T16:07:10.370Z,5.19
2022-11-29T16:10:18.170Z,5.21
2022-11-29T16:13:35.690Z,5.20
2022-11-29T16:16:41.366Z,5.16
2022-11-29T16:19:47.024Z,5.24
2022-11-29T16:23:11.335Z,5.30
2022-11-29T16:26:19.033Z,5.30
2022-11-29T16:29:28.392Z,5.27
2022-11-29T16:32:35.151Z,5.31
2022-11-29T16:35:40.078Z,5.28
2022-11-29T16:38:49.087Z,5.33
2022-11-29T16:42:08.807Z,5.33
2022-11-29T16:45:35.209Z,5.29
2022-11-29T16:48:40.444Z,5.32
2022-11-29T16:51:49.097Z,5.29
2022-11-29T16:54:55.163Z,5.34
2022-11-29T16:57:59.781Z,5.39
2022-11-29T17:01:17.984Z,5.37
2022-11-29T17:04:23.263Z,5.33
2022-11-29T17:07:32.648Z,5.39
2022-11-29T17:10:38.839Z,5.43
2022-11-29T17:13:43.622Z,5.41
2022-11-29T17:16:49.479Z,5.47
2022-11-29T17:19:54.676Z,5.46
2022-11-29T17:22:59.533Z,5.41
2022-11-29T17:26:05.755Z,5.44
2022-11-29T17:29:12.149Z,5.46
2022-11-29T17:32:16.815Z,5.45
2022-11-29T17:35:21.482Z,5.46
2022-11-29T17:38:26.698Z,5.45
2022-11-29T17:41:33.757Z,5.39
2022-11-29T17:44:38.467Z,5.42
2022-11-29T17:47:43.325Z,5.49
2022-11-29T17:50:48.025Z,5.48
2022-11-29T17:53:54.242Z,5.41
2022-11-29T17:57:00.997Z,5.42
2022-11-29T18:00:08.197Z,5.44
2022-11-29T18:03:16.028Z,5.48
2022-11-29T18:06:22.637Z,5.49
2022-11-29T18:09:27.336Z,5.56
2022-11-29T18:12:33.383Z,5.46
2022-11-29T18:15:38.377Z,5.48
2022-11-29T18:18:44.048Z,5.52
2022-11-29T18:21:49.535Z,5.41
2022-11-29T18:25:09.836Z,5.44
2022-11-29T18:28:20.223Z,5.55
2022-11-29T18:31:28.275Z,5.51
2022-11-29T18:34:33.002Z,5.52
2022-11-29T18:38:12.774Z,5.52
2022-11-29T18:41:08.627Z,5.48
2022-11-29T18:44:16.695Z,5.50
2022-11-29T18:47:21.387Z,5.49
2022-11-29T18:50:26.168Z,5.44
2022-11-29T18:53:30.925Z,5.54
2022-11-29T18:56:38.348Z,5.52
2022-11-29T18:59:44.422Z,5.50
2022-11-29T19:02:49.186Z,5.56
2022-11-29T19:05:54.447Z,5.54
2022-11-29T19:08:59.569Z,5.57
2022-11-29T19:12:04.409Z,5.61
2022-11-29T19:15:13.031Z,5.56
2022-11-29T19:18:20.199Z,5.51
2022-11-29T19:21:27.360Z,5.54
2022-11-29T19:24:32.077Z,5.50
2022-11-29T19:27:36.725Z,5.51
2022-11-29T19:30:42.917Z,5.45
2022-11-29T19:33:48.386Z,5.55
2022-11-29T19:36:53.040Z,5.50
2022-11-29T19:39:57.679Z,5.58
2022-11-29T19:43:02.440Z,5.63
2022-11-29T19:46:13.863Z,5.56
2022-11-29T19:49:18.566Z,5.54
2022-11-29T19:52:23.373Z,5.53
2022-11-29T19:55:28.161Z,5.55
2022-11-29T19:58:33.002Z,5.56
2022-11-29T20:01:42.326Z,5.62
2022-11-29T20:04:49.672Z,5.70
2022-11-29T20:07:54.442Z,5.71
2022-11-29T20:11:06.995Z,5.78
2022-11-29T20:14:14.562Z,5.69
2022-11-29T20:17:20.726Z,5.71
2022-11-29T20:20:25.487Z,5.64
2022-11-29T20:23:30.745Z,5.62
2022-11-29T20:26:39.311Z,5.62
2022-11-29T20:29:44.192Z,5.58
2022-11-29T20:32:50.942Z,5.56
2022-11-29T20:36:03.952Z,5.63
2022-11-29T20:39:20.035Z,5.57
2022-11-29T20:42:54.588Z,5.62
2022-11-29T20:45:59.825Z,5.57
2022-11-29T20:49:07.008Z,5.55
2022-11-29T20:52:24.149Z,5.56
2022-11-29T20:55:29.032Z,5.60
2022-11-29T20:58:34.725Z,5.59
2022-11-29T21:01:39.476Z,5.65
2022-11-29T21:04:45.798Z,5.65
2022-11-29T21:07:50.720Z,5.53
2022-11-29T21:10:55.793Z,5.53
2022-11-29T21:14:03.860Z,5.51
2022-11-29T21:17:09.697Z,5.52
2022-11-29T21:20:22.845Z,5.48
2022-11-29T21:23:38.044Z,5.48
2022-11-29T21:26:46.178Z,5.50
2022-11-29T21:29:51.973Z,5.46
2022-11-29T21:32:57.517Z,5.49
2022-11-29T21:36:06.096Z,5.53
2022-11-29T21:39:14.152Z,5.53
2022-11-29T21:42:19.138Z,5.45
2022-11-29T21:45:23.845Z,5.44
2022-11-29T21:48:37.979Z,5.42
2022-11-29T21:51:44.089Z,5.44
2022-11-29T21:54:49.071Z,5.41
2022-11-29T21:57:54.079Z,5.40
2022-11-29T22:01:06.180Z,5.39
2022-11-29T22:04:11.400Z,5.46
2022-11-29T22:07:17.482Z,5.54
2022-11-29T22:10:22.204Z,5.53
2022-11-29T22:13:26.880Z,5.65
2022-11-29T22:16:31.819Z,5.67
2022-11-29T22:19:37.383Z,5.70
2022-11-29T22:22:43.398Z,5.66
2022-11-29T22:25:48.096Z,5.76
2022-11-29T22:28:52.894Z,5.71
2022-11-29T22:31:59.304Z,5.75
2022-11-29T22:35:04.024Z,5.77
2022-11-29T22:38:10.373Z,5.58
2022-11-29T22:41:16.386Z,5.53
2022-11-29T22:44:21.035Z,5.60
2022-11-29T22:47:25.719Z,5.62
2022-11-29T22:50:30.709Z,5.62
2022-11-29T22:53:37.385Z,5.65
2022-11-29T22:56:44.596Z,5.61
2022-11-29T22:59:49.294Z,5.51
2022-11-29T23:02:58.169Z,5.59
2022-11-29T23:06:07.833Z,5.62
2022-11-29T23:09:17.118Z,5.52
2022-11-29T23:12:22.001Z,5.58
2022-11-29T23:15:26.797Z,5.47
2022-11-29T23:18:31.590Z,5.48
2022-11-29T23:21:38.914Z,5.46
2022-11-29T23:24:46.889Z,5.50
2022-11-29T23:27:54.008Z,5.42
2022-11-29T23:31:00.117Z,5.44
2022-11-29T23:34:05.541Z,5.52
2022-11-29T23:37:11.358Z,5.43
2022-11-29T23:40:17.706Z,5.50
2022-11-29T23:43:22.809Z,5.45
2022-11-29T23:46:27.996Z,5.45
2022-11-29T23:49:35.311Z,5.46
2022-11-29T23:52:40.164Z,5.45
2022-11-29T23:55:47.851Z,5.46
2022-11-29T23:58:52.529Z,5.46
